sensor_id;sensor_type;location;lat;lon;timestamp;pressure;altitude;pressure_sealevel;temperature;humidity
34482;BME280;20720;48.886;9.388;2024-03-22T00:00:29;99108.13;;;11.04;100.00
34482;BME280;20720;48.886;9.388;2024-03-22T00:02:54;99106.56;;;11.24;100.00
34482;BME280;20720;48.886;9.388;2024-03-22T00:05:20;99110.41;;;11.07;100.00
34482;BME280;20720;48.886;9.388;2024-03-22T00:07:47;99102.50;;;11.07;100.00
34482;BME280;20720;48.886;9.388;2024-03-22T00:10:12;99106.75;;;11.08;100.00
34482;BME280;20720;48.886;9.388;2024-03-22T00:12:38;99102.41;;;11.00;100.00
34482;BME280;20720;48.886;9.388;2024-03-22T00:15:03;99096.34;;;10.85;100.00
34482;BME280;20720;48.886;9.388;2024-03-22T00:17:29;99092.44;;;10.67;100.00
34482;BME280;20720;48.886;9.388;2024-03-22T00:19:55;99093.84;;;10.25;100.00
34482;BME280;20720;48.886;9.388;2024-03-22T00:22:21;99091.94;;;10.34;100.00
34482;BME280;20720;48.886;9.388;2024-03-22T00:24:46;99095.72;;;10.69;100.00
34482;BME280;20720;48.886;9.388;2024-03-22T00:27:11;99093.59;;;10.35;100.00
34482;BME280;20720;48.886;9.388;2024-03-22T00:29:37;99088.47;;;10.71;100.00
34482;BME280;20720;48.886;9.388;2024-03-22T00:32:03;99087.78;;;10.02;100.00
34482;BME280;20720;48.886;9.388;2024-03-22T00:34:29;99091.16;;;10.11;100.00
34482;BME280;20720;48.886;9.388;2024-03-22T00:36:54;99088.00;;;10.67;100.00
34482;BME280;20720;48.886;9.388;2024-03-22T00:39:19;99084.31;;;10.62;100.00
34482;BME280;20720;48.886;9.388;2024-03-22T00:41:44;99086.81;;;10.40;100.00
34482;BME280;20720;48.886;9.388;2024-03-22T00:44:09;99082.00;;;10.59;100.00
34482;BME280;20720;48.886;9.388;2024-03-22T00:46:35;99085.34;;;10.53;100.00
34482;BME280;20720;48.886;9.388;2024-03-22T00:49:01;99079.63;;;10.34;100.00
34482;BME280;20720;48.886;9.388;2024-03-22T00:51:26;99083.94;;;10.13;100.00
34482;BME280;20720;48.886;9.388;2024-03-22T00:53:53;99074.72;;;10.17;100.00
34482;BME280;20720;48.886;9.388;2024-03-22T00:56:18;99072.97;;;9.87;100.00
34482;BME280;20720;48.886;9.388;2024-03-22T00:58:43;99074.38;;;9.97;100.00
34482;BME280;20720;48.886;9.388;2024-03-22T01:01:08;99064.41;;;9.70;100.00
34482;BME280;20720;48.886;9.388;2024-03-22T01:03:33;99063.47;;;9.63;100.00
34482;BME280;20720;48.886;9.388;2024-03-22T01:05:59;99055.34;;;9.95;100.00
34482;BME280;20720;48.886;9.388;2024-03-22T01:08:24;99053.75;;;9.86;100.00
34482;BME280;20720;48.886;9.388;2024-03-22T01:10:50;99037.53;;;9.45;100.00
34482;BME280;20720;48.886;9.388;2024-03-22T01:13:16;99046.25;;;9.38;100.00
34482;BME280;20720;48.886;9.388;2024-03-22T01:15:41;99041.25;;;9.74;100.00
34482;BME280;20720;48.886;9.388;2024-03-22T01:18:07;99036.66;;;9.76;100.00
34482;BME280;20720;48.886;9.388;2024-03-22T01:20:32;99038.63;;;9.51;100.00
34482;BME280;20720;48.886;9.388;2024-03-22T01:22:59;99049.06;;;9.82;100.00
34482;BME280;20720;48.886;9.388;2024-03-22T01:25:24;99040.09;;;9.76;100.00
34482;BME280;20720;48.886;9.388;2024-03-22T01:27:49;99030.63;;;9.22;100.00
34482;BME280;20720;48.886;9.388;2024-03-22T01:30:15;99030.41;;;9.54;100.00
34482;BME280;20720;48.886;9.388;2024-03-22T01:32:40;99023.06;;;9.72;100.00
34482;BME280;20720;48.886;9.388;2024-03-22T01:35:06;99027.53;;;9.86;100.00
34482;BME280;20720;48.886;9.388;2024-03-22T01:37:31;99024.91;;;9.86;100.00
34482;BME280;20720;48.886;9.388;2024-03-22T01:39:56;99031.84;;;9.79;100.00
34482;BME280;20720;48.886;9.388;2024-03-22T01:42:22;99037.06;;;9.42;100.00
34482;BME280;20720;48.886;9.388;2024-03-22T01:44:49;99038.50;;;9.67;100.00
34482;BME280;20720;48.886;9.388;2024-03-22T01:47:14;99039.88;;;9.63;100.00
34482;BME280;20720;48.886;9.388;2024-03-22T01:49:40;99030.94;;;9.72;100.00
34482;BME280;20720;48.886;9.388;2024-03-22T01:52:05;99029.00;;;9.66;100.00
34482;BME280;20720;48.886;9.388;2024-03-22T01:54:30;99030.41;;;9.54;100.00
34482;BME280;20720;48.886;9.388;2024-03-22T01:56:56;99030.53;;;9.38;100.00
34482;BME280;20720;48.886;9.388;2024-03-22T01:59:21;99017.13;;;9.33;100.00
34482;BME280;20720;48.886;9.388;2024-03-22T02:01:47;99022.03;;;9.36;100.00
34482;BME280;20720;48.886;9.388;2024-03-22T02:04:14;99023.00;;;9.35;100.00
34482;BME280;20720;48.886;9.388;2024-03-22T02:06:39;99013.56;;;9.26;100.00
34482;BME280;20720;48.886;9.388;2024-03-22T02:09:04;99006.44;;;8.81;100.00
34482;BME280;20720;48.886;9.388;2024-03-22T02:11:30;99006.38;;;9.20;100.00
34482;BME280;20720;48.886;9.388;2024-03-22T02:13:57;99003.44;;;8.92;100.00
34482;BME280;20720;48.886;9.388;2024-03-22T02:16:22;98999.66;;;9.48;100.00
34482;BME280;20720;48.886;9.388;2024-03-22T02:18:47;98989.97;;;9.26;100.00
34482;BME280;20720;48.886;9.388;2024-03-22T02:21:13;98993.13;;;9.44;100.00
34482;BME280;20720;48.886;9.388;2024-03-22T02:23:40;98991.72;;;9.33;100.00
34482;BME280;20720;48.886;9.388;2024-03-22T02:26:06;98996.38;;;9.46;100.00
34482;BME280;20720;48.886;9.388;2024-03-22T02:28:33;98987.09;;;9.35;100.00
34482;BME280;20720;48.886;9.388;2024-03-22T02:31:02;98988.50;;;9.01;100.00
34482;BME280;20720;48.886;9.388;2024-03-22T02:33:28;98980.94;;;9.28;100.00
34482;BME280;20720;48.886;9.388;2024-03-22T02:35:53;98987.88;;;9.44;100.00
34482;BME280;20720;48.886;9.388;2024-03-22T02:38:19;98981.22;;;9.33;100.00
34482;BME280;20720;48.886;9.388;2024-03-22T02:40:47;98992.34;;;9.58;100.00
34482;BME280;20720;48.886;9.388;2024-03-22T02:43:13;98985.59;;;9.41;100.00
34482;BME280;20720;48.886;9.388;2024-03-22T02:45:38;98989.53;;;9.37;100.00
34482;BME280;20720;48.886;9.388;2024-03-22T02:48:04;98977.22;;;8.92;100.00
34482;BME280;20720;48.886;9.388;2024-03-22T02:50:36;98970.28;;;8.77;100.00
34482;BME280;20720;48.886;9.388;2024-03-22T02:53:03;98972.94;;;9.22;100.00
34482;BME280;20720;48.886;9.388;2024-03-22T02:55:29;98962.41;;;8.77;100.00
34482;BME280;20720;48.886;9.388;2024-03-22T02:57:56;98967.38;;;9.25;100.00
34482;BME280;20720;48.886;9.388;2024-03-22T03:00:21;98958.16;;;9.52;100.00
34482;BME280;20720;48.886;9.388;2024-03-22T03:02:47;98947.13;;;9.33;100.00
34482;BME280;20720;48.886;9.388;2024-03-22T03:05:12;98953.19;;;9.34;100.00
34482;BME280;20720;48.886;9.388;2024-03-22T03:07:37;98952.38;;;9.33;100.00
34482;BME280;20720;48.886;9.388;2024-03-22T03:10:02;98947.53;;;9.45;100.00
34482;BME280;20720;48.886;9.388;2024-03-22T03:12:28;98949.19;;;9.46;100.00
34482;BME280;20720;48.886;9.388;2024-03-22T03:14:53;98950.13;;;9.30;100.00
34482;BME280;20720;48.886;9.388;2024-03-22T03:17:18;98951.03;;;9.37;100.00
34482;BME280;20720;48.886;9.388;2024-03-22T03:19:44;98946.94;;;9.35;100.00
34482;BME280;20720;48.886;9.388;2024-03-22T03:22:09;98949.50;;;9.43;100.00
34482;BME280;20720;48.886;9.388;2024-03-22T03:24:34;98947.91;;;9.19;100.00
34482;BME280;20720;48.886;9.388;2024-03-22T03:27:00;98952.13;;;8.98;100.00
34482;BME280;20720;48.886;9.388;2024-03-22T03:29:25;98945.81;;;9.15;100.00
34482;BME280;20720;48.886;9.388;2024-03-22T03:31:50;98952.38;;;9.33;100.00
34482;BME280;20720;48.886;9.388;2024-03-22T03:34:16;98943.00;;;9.16;100.00
34482;BME280;20720;48.886;9.388;2024-03-22T03:36:41;98939.63;;;9.08;100.00
34482;BME280;20720;48.886;9.388;2024-03-22T03:39:06;98933.19;;;8.88;100.00
34482;BME280;20720;48.886;9.388;2024-03-22T03:41:32;98931.78;;;8.46;100.00
34482;BME280;20720;48.886;9.388;2024-03-22T03:43:57;98931.75;;;8.54;100.00
34482;BME280;20720;48.886;9.388;2024-03-22T03:46:22;98932.88;;;8.60;100.00
34482;BME280;20720;48.886;9.388;2024-03-22T03:48:48;98937.91;;;8.31;100.00
34482;BME280;20720;48.886;9.388;2024-03-22T03:51:13;98942.66;;;8.27;100.00
34482;BME280;20720;48.886;9.388;2024-03-22T03:53:38;98939.94;;;7.97;100.00
34482;BME280;20720;48.886;9.388;2024-03-22T03:56:03;98936.19;;;7.99;100.00
34482;BME280;20720;48.886;9.388;2024-03-22T03:58:29;98939.63;;;8.46;100.00
34482;BME280;20720;48.886;9.388;2024-03-22T04:00:54;98938.41;;;8.65;100.00
34482;BME280;20720;48.886;9.388;2024-03-22T04:03:19;98932.38;;;8.26;100.00
34482;BME280;20720;48.886;9.388;2024-03-22T04:05:44;98933.38;;;8.01;100.00
34482;BME280;20720;48.886;9.388;2024-03-22T04:08:10;98931.66;;;8.40;100.00
34482;BME280;20720;48.886;9.388;2024-03-22T04:10:35;98927.56;;;8.45;100.00
34482;BME280;20720;48.886;9.388;2024-03-22T04:13:00;98930.22;;;8.29;100.00
34482;BME280;20720;48.886;9.388;2024-03-22T04:15:25;98931.84;;;8.22;100.00
34482;BME280;20720;48.886;9.388;2024-03-22T04:17:51;98929.25;;;8.30;100.00
34482;BME280;20720;48.886;9.388;2024-03-22T04:20:16;98925.97;;;8.28;100.00
34482;BME280;20720;48.886;9.388;2024-03-22T04:22:41;98926.09;;;8.35;100.00
34482;BME280;20720;48.886;9.388;2024-03-22T04:25:07;98931.88;;;8.30;100.00
34482;BME280;20720;48.886;9.388;2024-03-22T04:27:36;98931.28;;;8.51;100.00
34482;BME280;20720;48.886;9.388;2024-03-22T04:30:01;98932.84;;;8.29;100.00
34482;BME280;20720;48.886;9.388;2024-03-22T04:32:26;98933.91;;;8.04;100.00
34482;BME280;20720;48.886;9.388;2024-03-22T04:34:52;98922.13;;;8.00;100.00
34482;BME280;20720;48.886;9.388;2024-03-22T04:37:17;98932.50;;;8.32;100.00
34482;BME280;20720;48.886;9.388;2024-03-22T04:39:45;98940.25;;;8.57;100.00
34482;BME280;20720;48.886;9.388;2024-03-22T04:42:11;98933.09;;;8.42;100.00
34482;BME280;20720;48.886;9.388;2024-03-22T04:44:36;98935.28;;;8.70;100.00
34482;BME280;20720;48.886;9.388;2024-03-22T04:47:01;98937.00;;;8.85;100.00
34482;BME280;20720;48.886;9.388;2024-03-22T04:49:26;98937.69;;;8.79;100.00
34482;BME280;20720;48.886;9.388;2024-03-22T04:51:52;98938.78;;;8.85;100.00
34482;BME280;20720;48.886;9.388;2024-03-22T04:54:17;98941.19;;;8.94;100.00
34482;BME280;20720;48.886;9.388;2024-03-22T04:56:42;98939.91;;;8.90;100.00
34482;BME280;20720;48.886;9.388;2024-03-22T04:59:07;98937.69;;;9.02;100.00
34482;BME280;20720;48.886;9.388;2024-03-22T05:01:32;98934.16;;;8.95;100.00
34482;BME280;20720;48.886;9.388;2024-03-22T05:03:58;98936.13;;;8.93;100.00
34482;BME280;20720;48.886;9.388;2024-03-22T05:06:23;98941.94;;;9.03;100.00
34482;BME280;20720;48.886;9.388;2024-03-22T05:08:48;98931.22;;;9.12;100.00
34482;BME280;20720;48.886;9.388;2024-03-22T05:11:13;98932.00;;;9.21;100.00
34482;BME280;20720;48.886;9.388;2024-03-22T05:13:39;98932.19;;;8.97;100.00
34482;BME280;20720;48.886;9.388;2024-03-22T05:16:05;98931.38;;;8.66;100.00
34482;BME280;20720;48.886;9.388;2024-03-22T05:18:31;98933.00;;;8.36;100.00
34482;BME280;20720;48.886;9.388;2024-03-22T05:20:56;98935.44;;;8.37;100.00
34482;BME280;20720;48.886;9.388;2024-03-22T05:23:21;98934.38;;;8.54;100.00
34482;BME280;20720;48.886;9.388;2024-03-22T05:25:46;98927.59;;;8.68;100.00
34482;BME280;20720;48.886;9.388;2024-03-22T05:28:12;98924.59;;;9.24;100.00
34482;BME280;20720;48.886;9.388;2024-03-22T05:30:37;98925.28;;;9.41;100.00
34482;BME280;20720;48.886;9.388;2024-03-22T05:33:02;98928.78;;;9.33;100.00
34482;BME280;20720;48.886;9.388;2024-03-22T05:35:27;98915.84;;;9.32;100.00
34482;BME280;20720;48.886;9.388;2024-03-22T05:37:53;98914.59;;;9.65;100.00
34482;BME280;20720;48.886;9.388;2024-03-22T05:40:18;98911.78;;;9.81;100.00
34482;BME280;20720;48.886;9.388;2024-03-22T05:42:43;98907.44;;;9.59;100.00
34482;BME280;20720;48.886;9.388;2024-03-22T05:45:09;98902.44;;;9.64;100.00
34482;BME280;20720;48.886;9.388;2024-03-22T05:47:34;98909.16;;;9.81;100.00
34482;BME280;20720;48.886;9.388;2024-03-22T05:50:00;98911.53;;;9.91;100.00
34482;BME280;20720;48.886;9.388;2024-03-22T05:52:27;98907.56;;;9.95;100.00
34482;BME280;20720;48.886;9.388;2024-03-22T05:54:52;98912.16;;;10.07;100.00
34482;BME280;20720;48.886;9.388;2024-03-22T05:57:18;98906.28;;;9.76;100.00
34482;BME280;20720;48.886;9.388;2024-03-22T05:59:43;98904.28;;;10.07;100.00
34482;BME280;20720;48.886;9.388;2024-03-22T06:02:08;98897.13;;;10.01;100.00
34482;BME280;20720;48.886;9.388;2024-03-22T06:04:33;98892.47;;;10.11;100.00
34482;BME280;20720;48.886;9.388;2024-03-22T06:07:00;98888.84;;;10.12;100.00
34482;BME280;20720;48.886;9.388;2024-03-22T06:09:26;98889.03;;;10.25;100.00
34482;BME280;20720;48.886;9.388;2024-03-22T06:12:11;98883.75;;;10.25;100.00
34482;BME280;20720;48.886;9.388;2024-03-22T06:14:36;98893.19;;;10.20;100.00
34482;BME280;20720;48.886;9.388;2024-03-22T06:17:03;98892.00;;;10.37;100.00
34482;BME280;20720;48.886;9.388;2024-03-22T06:19:29;98892.78;;;10.37;100.00
34482;BME280;20720;48.886;9.388;2024-03-22T06:21:54;98888.69;;;10.50;100.00
34482;BME280;20720;48.886;9.388;2024-03-22T06:24:19;98889.88;;;10.62;100.00
34482;BME280;20720;48.886;9.388;2024-03-22T06:26:44;98883.19;;;10.80;100.00
34482;BME280;20720;48.886;9.388;2024-03-22T06:29:09;98889.13;;;10.89;100.00
34482;BME280;20720;48.886;9.388;2024-03-22T06:31:35;98885.53;;;10.75;100.00
34482;BME280;20720;48.886;9.388;2024-03-22T06:34:00;98887.47;;;10.31;100.00
34482;BME280;20720;48.886;9.388;2024-03-22T06:36:28;98876.34;;;10.65;100.00
34482;BME280;20720;48.886;9.388;2024-03-22T06:38:54;98877.16;;;10.86;100.00
34482;BME280;20720;48.886;9.388;2024-03-22T06:41:19;98875.63;;;10.92;100.00
34482;BME280;20720;48.886;9.388;2024-03-22T06:43:44;98874.84;;;10.98;100.00
34482;BME280;20720;48.886;9.388;2024-03-22T06:46:10;98873.75;;;11.07;100.00
34482;BME280;20720;48.886;9.388;2024-03-22T06:48:35;98868.94;;;11.17;100.00
34482;BME280;20720;48.886;9.388;2024-03-22T06:51:00;98878.84;;;11.36;100.00
34482;BME280;20720;48.886;9.388;2024-03-22T06:53:25;98878.19;;;11.06;100.00
34482;BME280;20720;48.886;9.388;2024-03-22T06:55:52;98877.81;;;11.58;100.00
34482;BME280;20720;48.886;9.388;2024-03-22T06:58:17;98884.13;;;11.64;100.00
34482;BME280;20720;48.886;9.388;2024-03-22T07:00:42;98879.13;;;11.69;100.00
34482;BME280;20720;48.886;9.388;2024-03-22T07:03:07;98877.19;;;11.84;100.00
34482;BME280;20720;48.886;9.388;2024-03-22T07:05:33;98878.72;;;11.72;100.00
34482;BME280;20720;48.886;9.388;2024-03-22T07:07:58;98874.69;;;12.03;100.00
34482;BME280;20720;48.886;9.388;2024-03-22T07:10:24;98870.97;;;12.39;100.00
34482;BME280;20720;48.886;9.388;2024-03-22T07:12:56;98869.00;;;12.54;100.00
34482;BME280;20720;48.886;9.388;2024-03-22T07:15:23;98865.03;;;12.84;100.00
34482;BME280;20720;48.886;9.388;2024-03-22T07:17:49;98861.47;;;13.11;100.00
34482;BME280;20720;48.886;9.388;2024-03-22T07:20:14;98863.09;;;13.45;100.00
34482;BME280;20720;48.886;9.388;2024-03-22T07:22:39;98851.25;;;13.86;100.00
34482;BME280;20720;48.886;9.388;2024-03-22T07:25:05;98850.78;;;14.09;100.00
34482;BME280;20720;48.886;9.388;2024-03-22T07:27:30;98856.22;;;14.21;100.00
34482;BME280;20720;48.886;9.388;2024-03-22T07:29:56;98850.69;;;14.42;98.55
34482;BME280;20720;48.886;9.388;2024-03-22T07:32:22;98843.66;;;14.09;100.00
34482;BME280;20720;48.886;9.388;2024-03-22T07:34:47;98851.53;;;14.73;99.44
34482;BME280;20720;48.886;9.388;2024-03-22T07:37:12;98840.91;;;15.60;94.47
34482;BME280;20720;48.886;9.388;2024-03-22T07:39:38;98850.97;;;15.27;93.19
34482;BME280;20720;48.886;9.388;2024-03-22T07:42:03;98838.94;;;15.00;95.22
34482;BME280;20720;48.886;9.388;2024-03-22T07:44:28;98838.25;;;15.60;92.73
34482;BME280;20720;48.886;9.388;2024-03-22T07:46:54;98829.13;;;16.65;89.33
34482;BME280;20720;48.886;9.388;2024-03-22T07:49:20;98834.91;;;17.26;84.47
34482;BME280;20720;48.886;9.388;2024-03-22T07:51:45;98826.91;;;18.19;80.96
34482;BME280;20720;48.886;9.388;2024-03-22T07:54:10;98827.25;;;18.34;79.54
34482;BME280;20720;48.886;9.388;2024-03-22T07:56:35;98828.78;;;18.86;76.78
34482;BME280;20720;48.886;9.388;2024-03-22T07:59:01;98828.97;;;19.79;72.91
34482;BME280;20720;48.886;9.388;2024-03-22T08:01:26;98830.22;;;19.38;70.57
34482;BME280;20720;48.886;9.388;2024-03-22T08:03:52;98838.69;;;18.23;76.07
34482;BME280;20720;48.886;9.388;2024-03-22T08:06:17;98843.84;;;18.13;76.48
34482;BME280;20720;48.886;9.388;2024-03-22T08:08:43;98832.59;;;18.62;75.19
34482;BME280;20720;48.886;9.388;2024-03-22T08:11:08;98837.28;;;19.83;69.87
34482;BME280;20720;48.886;9.388;2024-03-22T08:13:34;98837.53;;;20.89;68.56
34482;BME280;20720;48.886;9.388;2024-03-22T08:15:59;98833.88;;;18.20;76.40
34482;BME280;20720;48.886;9.388;2024-03-22T08:18:24;98823.41;;;21.25;67.92
34482;BME280;20720;48.886;9.388;2024-03-22T08:20:50;98831.31;;;20.57;66.47
34482;BME280;20720;48.886;9.388;2024-03-22T08:23:15;98822.56;;;21.51;64.66
34482;BME280;20720;48.886;9.388;2024-03-22T08:25:42;98830.63;;;21.57;64.00
34482;BME280;20720;48.886;9.388;2024-03-22T08:28:08;98825.06;;;21.31;65.12
34482;BME280;20720;48.886;9.388;2024-03-22T08:30:33;98825.13;;;18.47;76.87
34482;BME280;20720;48.886;9.388;2024-03-22T08:32:58;98824.78;;;17.46;82.61
34482;BME280;20720;48.886;9.388;2024-03-22T08:35:23;98817.84;;;19.65;77.58
34482;BME280;20720;48.886;9.388;2024-03-22T08:37:48;98812.38;;;20.15;72.00
34482;BME280;20720;48.886;9.388;2024-03-22T08:40:14;98811.63;;;19.98;71.44
34482;BME280;20720;48.886;9.388;2024-03-22T08:42:39;98809.06;;;19.87;75.41
34482;BME280;20720;48.886;9.388;2024-03-22T08:45:05;98811.16;;;20.71;72.05
34482;BME280;20720;48.886;9.388;2024-03-22T08:47:31;98812.19;;;21.60;66.96
34482;BME280;20720;48.886;9.388;2024-03-22T08:49:56;98811.72;;;19.48;71.88
34482;BME280;20720;48.886;9.388;2024-03-22T08:52:23;98808.09;;;19.93;75.14
34482;BME280;20720;48.886;9.388;2024-03-22T08:54:49;98808.03;;;21.42;69.58
34482;BME280;20720;48.886;9.388;2024-03-22T08:57:14;98795.41;;;21.75;66.49
34482;BME280;20720;48.886;9.388;2024-03-22T08:59:40;98800.72;;;22.11;64.79
34482;BME280;20720;48.886;9.388;2024-03-22T09:02:05;98799.47;;;22.39;64.59
34482;BME280;20720;48.886;9.388;2024-03-22T09:04:31;98791.41;;;22.29;63.85
34482;BME280;20720;48.886;9.388;2024-03-22T09:06:56;98791.34;;;21.67;64.50
34482;BME280;20720;48.886;9.388;2024-03-22T09:09:23;98803.56;;;21.16;65.84
34482;BME280;20720;48.886;9.388;2024-03-22T09:11:48;98805.97;;;21.49;66.28
34482;BME280;20720;48.886;9.388;2024-03-22T09:14:13;98787.06;;;21.66;64.01
34482;BME280;20720;48.886;9.388;2024-03-22T09:16:39;98798.16;;;19.33;70.82
34482;BME280;20720;48.886;9.388;2024-03-22T09:19:04;98791.72;;;20.06;74.58
34482;BME280;20720;48.886;9.388;2024-03-22T09:21:29;98792.88;;;20.90;69.33
34482;BME280;20720;48.886;9.388;2024-03-22T09:23:56;98791.03;;;22.05;65.00
34482;BME280;20720;48.886;9.388;2024-03-22T09:26:21;98790.13;;;21.80;63.57
34482;BME280;20720;48.886;9.388;2024-03-22T09:28:47;98779.22;;;19.51;74.26
34482;BME280;20720;48.886;9.388;2024-03-22T09:31:12;98779.88;;;20.98;69.67
34482;BME280;20720;48.886;9.388;2024-03-22T09:33:37;98773.91;;;21.18;67.32
34482;BME280;20720;48.886;9.388;2024-03-22T09:36:03;98769.53;;;18.23;78.02
34482;BME280;20720;48.886;9.388;2024-03-22T09:38:28;98766.19;;;18.55;79.44
34482;BME280;20720;48.886;9.388;2024-03-22T09:40:54;98768.44;;;20.76;73.19
34482;BME280;20720;48.886;9.388;2024-03-22T09:43:22;98761.53;;;23.27;61.46
34482;BME280;20720;48.886;9.388;2024-03-22T09:45:49;98762.03;;;25.16;56.31
34482;BME280;20720;48.886;9.388;2024-03-22T09:48:20;98750.44;;;25.73;52.57
34482;BME280;20720;48.886;9.388;2024-03-22T09:50:50;98752.16;;;25.06;52.08
34482;BME280;20720;48.886;9.388;2024-03-22T09:53:20;98748.75;;;26.05;49.51
34482;BME280;20720;48.886;9.388;2024-03-22T09:55:47;98742.50;;;25.86;51.48
34482;BME280;20720;48.886;9.388;2024-03-22T09:58:13;98750.63;;;23.98;57.17
34482;BME280;20720;48.886;9.388;2024-03-22T10:00:38;98738.69;;;25.40;54.06
34482;BME280;20720;48.886;9.388;2024-03-22T10:03:04;98731.78;;;25.58;52.40
34482;BME280;20720;48.886;9.388;2024-03-22T10:05:30;98724.22;;;25.02;51.35
34482;BME280;20720;48.886;9.388;2024-03-22T10:07:55;98728.00;;;23.25;56.50
34482;BME280;20720;48.886;9.388;2024-03-22T10:10:21;98722.41;;;23.21;56.63
34482;BME280;20720;48.886;9.388;2024-03-22T10:12:46;98718.75;;;24.45;53.77
34482;BME280;20720;48.886;9.388;2024-03-22T10:15:12;98714.66;;;22.65;57.17
34482;BME280;20720;48.886;9.388;2024-03-22T10:17:38;98701.03;;;24.78;52.55
34482;BME280;20720;48.886;9.388;2024-03-22T10:20:05;98697.59;;;26.00;50.23
34482;BME280;20720;48.886;9.388;2024-03-22T10:22:34;98697.22;;;25.88;48.39
34482;BME280;20720;48.886;9.388;2024-03-22T10:25:00;98691.34;;;24.38;51.73
34482;BME280;20720;48.886;9.388;2024-03-22T10:27:27;98695.47;;;24.64;51.11
34482;BME280;20720;48.886;9.388;2024-03-22T10:29:52;98690.00;;;23.87;50.56
34482;BME280;20720;48.886;9.388;2024-03-22T10:32:18;98689.28;;;24.25;51.65
34482;BME280;20720;48.886;9.388;2024-03-22T10:34:45;98685.38;;;22.33;53.29
34482;BME280;20720;48.886;9.388;2024-03-22T10:37:13;98680.28;;;23.17;52.05
34482;BME280;20720;48.886;9.388;2024-03-22T10:39:42;98672.16;;;23.57;51.49
34482;BME280;20720;48.886;9.388;2024-03-22T10:42:07;98666.22;;;24.19;50.27
34482;BME280;20720;48.886;9.388;2024-03-22T10:44:32;98658.03;;;25.06;49.74
34482;BME280;20720;48.886;9.388;2024-03-22T10:47:01;98646.00;;;26.49;46.25
34482;BME280;20720;48.886;9.388;2024-03-22T10:49:28;98650.88;;;27.12;45.33
34482;BME280;20720;48.886;9.388;2024-03-22T10:51:58;98643.09;;;26.27;46.34
34482;BME280;20720;48.886;9.388;2024-03-22T10:54:28;98637.75;;;27.19;43.83
34482;BME280;20720;48.886;9.388;2024-03-22T10:56:56;98637.84;;;28.75;41.83
34482;BME280;20720;48.886;9.388;2024-03-22T10:59:22;98623.53;;;28.30;41.78
34482;BME280;20720;48.886;9.388;2024-03-22T11:01:49;98625.38;;;25.84;43.19
34482;BME280;20720;48.886;9.388;2024-03-22T11:04:17;98615.75;;;25.78;44.44
34482;BME280;20720;48.886;9.388;2024-03-22T11:06:47;98606.72;;;25.69;46.48
34482;BME280;20720;48.886;9.388;2024-03-22T11:09:21;98611.16;;;25.97;44.99
34482;BME280;20720;48.886;9.388;2024-03-22T11:11:48;98611.69;;;26.18;43.93
34482;BME280;20720;48.886;9.388;2024-03-22T11:14:13;98601.75;;;26.50;41.73
34482;BME280;20720;48.886;9.388;2024-03-22T11:16:38;98598.91;;;27.33;41.91
34482;BME280;20720;48.886;9.388;2024-03-22T11:19:04;98600.75;;;26.78;42.54
34482;BME280;20720;48.886;9.388;2024-03-22T11:21:32;98599.94;;;22.31;51.85
34482;BME280;20720;48.886;9.388;2024-03-22T11:24:00;98595.09;;;24.50;50.13
34482;BME280;20720;48.886;9.388;2024-03-22T11:26:25;98589.53;;;26.39;45.38
34482;BME280;20720;48.886;9.388;2024-03-22T11:28:51;98582.03;;;26.68;45.21
34482;BME280;20720;48.886;9.388;2024-03-22T11:31:16;98593.41;;;24.88;45.06
34482;BME280;20720;48.886;9.388;2024-03-22T11:33:41;98579.59;;;24.94;46.77
34482;BME280;20720;48.886;9.388;2024-03-22T11:36:08;98578.25;;;25.63;45.73
34482;BME280;20720;48.886;9.388;2024-03-22T11:38:34;98567.75;;;25.85;45.97
34482;BME280;20720;48.886;9.388;2024-03-22T11:40:59;98574.03;;;26.31;44.08
34482;BME280;20720;48.886;9.388;2024-03-22T11:43:28;98561.97;;;26.74;42.79
34482;BME280;20720;48.886;9.388;2024-03-22T11:45:55;98556.31;;;26.57;44.27
34482;BME280;20720;48.886;9.388;2024-03-22T11:48:21;98554.31;;;25.98;43.91
34482;BME280;20720;48.886;9.388;2024-03-22T11:50:46;98550.31;;;25.59;44.17
34482;BME280;20720;48.886;9.388;2024-03-22T11:53:11;98548.69;;;24.40;47.17
34482;BME280;20720;48.886;9.388;2024-03-22T11:55:37;98541.84;;;25.89;45.61
34482;BME280;20720;48.886;9.388;2024-03-22T11:58:02;98543.13;;;23.92;46.32
34482;BME280;20720;48.886;9.388;2024-03-22T12:00:28;98537.25;;;24.29;45.46
34482;BME280;20720;48.886;9.388;2024-03-22T12:02:53;98535.06;;;25.73;43.85
34482;BME280;20720;48.886;9.388;2024-03-22T12:05:19;98527.72;;;25.17;45.40
34482;BME280;20720;48.886;9.388;2024-03-22T12:07:45;98522.56;;;26.46;43.31
34482;BME280;20720;48.886;9.388;2024-03-22T12:10:10;98510.41;;;26.62;42.59
34482;BME280;20720;48.886;9.388;2024-03-22T12:12:36;98512.50;;;26.06;43.04
34482;BME280;20720;48.886;9.388;2024-03-22T12:15:02;98502.81;;;24.60;44.87
34482;BME280;20720;48.886;9.388;2024-03-22T12:17:27;98505.81;;;24.58;45.63
34482;BME280;20720;48.886;9.388;2024-03-22T12:19:53;98499.72;;;25.93;44.23
34482;BME280;20720;48.886;9.388;2024-03-22T12:22:18;98489.34;;;26.05;42.50
34482;BME280;20720;48.886;9.388;2024-03-22T12:24:43;98482.78;;;25.37;43.68
34482;BME280;20720;48.886;9.388;2024-03-22T12:27:08;98482.56;;;26.08;42.99
34482;BME280;20720;48.886;9.388;2024-03-22T12:29:34;98472.94;;;24.90;44.47
34482;BME280;20720;48.886;9.388;2024-03-22T12:32:00;98470.34;;;24.56;45.00
34482;BME280;20720;48.886;9.388;2024-03-22T12:34:31;98469.00;;;24.82;44.86
34482;BME280;20720;48.886;9.388;2024-03-22T12:36:58;98465.56;;;25.38;43.77
34482;BME280;20720;48.886;9.388;2024-03-22T12:39:24;98457.34;;;25.48;43.84
34482;BME280;20720;48.886;9.388;2024-03-22T12:41:49;98456.53;;;25.84;42.62
34482;BME280;20720;48.886;9.388;2024-03-22T12:44:14;98449.06;;;23.74;46.47
34482;BME280;20720;48.886;9.388;2024-03-22T12:46:39;98435.81;;;25.66;43.89
34482;BME280;20720;48.886;9.388;2024-03-22T12:49:07;98427.31;;;24.85;44.80